createdAt,value
2022-08-02T00:00:25.202Z,87.48
2022-08-02T00:01:24.244Z,87.95
2022-08-02T00:02:24.178Z,87.38
2022-08-02T00:03:24.612Z,87.89
2022-08-02T00:04:24.162Z,87.18
2022-08-02T00:05:24.157Z,87.24
2022-08-02T00:06:24.136Z,86.88
2022-08-02T00:07:24.129Z,86.98
2022-08-02T00:08:24.136Z,87.08
2022-08-02T00:09:24.106Z,86.68
2022-08-02T00:10:24.102Z,86.68
2022-08-02T00:11:24.078Z,87.59
2022-08-02T00:12:24.068Z,87.59
2022-08-02T00:13:24.079Z,87.89
2022-08-02T00:14:24.052Z,87.99
2022-08-02T00:15:24.037Z,87.59
2022-08-02T00:16:38.117Z,87.38
2022-08-02T00:17:25.014Z,87.59
2022-08-02T00:18:24.015Z,87.69
2022-08-02T00:19:24.010Z,87.59
2022-08-02T00:20:23.989Z,87.08
2022-08-02T00:21:23.982Z,86.98
2022-08-02T00:22:23.958Z,86.71
2022-08-02T00:23:23.962Z,87.22
2022-08-02T00:24:31.174Z,86.98
2022-08-02T00:25:23.935Z,87.32
2022-08-02T00:26:23.917Z,87.02
2022-08-02T00:27:23.906Z,87.12
2022-08-02T00:28:27.804Z,86.82
2022-08-02T00:29:23.957Z,87.63
2022-08-02T00:30:23.868Z,87.83
2022-08-02T00:31:23.856Z,87.83
2022-08-02T00:32:23.846Z,87.52
2022-08-02T00:34:27.065Z,88.03
2022-08-02T00:34:28.573Z,88.03
2022-08-02T00:35:24.814Z,87.63
2022-08-02T00:36:23.799Z,87.52
2022-08-02T00:37:23.802Z,87.63
2022-08-02T00:38:23.782Z,87.93
2022-08-02T00:39:34.614Z,88.03
2022-08-02T00:40:24.793Z,88.13
2022-08-02T00:41:23.757Z,88.03
2022-08-02T00:42:23.737Z,87.73
2022-08-02T00:43:23.723Z,87.83
2022-08-02T00:44:23.716Z,87.83
2022-08-02T00:46:02.679Z,87.83
2022-08-02T00:46:24.691Z,88.13
2022-08-02T00:47:23.682Z,88.03
2022-08-02T00:48:23.676Z,88.03
2022-08-02T00:49:23.729Z,88.03
2022-08-02T00:50:23.660Z,87.63
2022-08-02T00:51:23.638Z,87.63
2022-08-02T00:52:23.626Z,87.63
2022-08-02T00:53:23.622Z,87.63
2022-08-02T00:54:23.601Z,88.07
2022-08-02T00:55:23.606Z,88.23
2022-08-02T00:56:24.579Z,88.28
2022-08-02T00:57:23.575Z,88.07
2022-08-02T00:58:23.561Z,88.38
2022-08-02T00:59:23.564Z,88.99
2022-08-02T01:00:23.551Z,88.68
2022-08-02T01:01:24.576Z,88.58
2022-08-02T01:02:23.514Z,88.99
2022-08-02T01:03:23.512Z,88.99
2022-08-02T01:04:26.846Z,88.68
2022-08-02T01:05:24.507Z,88.34
2022-08-02T01:06:23.479Z,88.75
2022-08-02T01:07:23.462Z,88.84
2022-08-02T01:08:29.604Z,88.78
2022-08-02T01:09:24.441Z,88.48
2022-08-02T01:10:23.460Z,88.64
2022-08-02T01:11:23.417Z,88.89
2022-08-02T01:12:23.407Z,88.44
2022-08-02T01:13:23.405Z,88.38
2022-08-02T01:14:23.385Z,88.75
2022-08-02T01:15:23.372Z,89.04
2022-08-02T01:16:24.378Z,89.55
2022-08-02T01:17:23.348Z,89.45
2022-08-02T01:18:23.337Z,89.04
2022-08-02T01:19:23.336Z,88.75
2022-08-02T01:20:23.320Z,88.95
2022-08-02T01:21:23.338Z,88.84
2022-08-02T01:22:39.409Z,88.75
2022-08-02T01:23:24.283Z,88.78
2022-08-02T01:24:23.271Z,88.75
2022-08-02T01:25:23.266Z,88.89
2022-08-02T01:26:23.256Z,88.78
2022-08-02T01:27:23.275Z,88.58
2022-08-02T01:28:23.231Z,88.78
2022-08-02T01:29:23.216Z,89.09
2022-08-02T01:30:23.206Z,89.50
2022-08-02T01:31:23.194Z,88.99
2022-08-02T01:32:23.186Z,88.48
2022-08-02T01:33:23.194Z,88.68
2022-08-02T01:34:23.168Z,88.18
2022-08-02T01:35:23.151Z,88.99
2022-08-02T01:36:23.141Z,89.19
2022-08-02T01:37:23.145Z,89.50
2022-08-02T01:38:23.117Z,89.19
2022-08-02T01:39:26.721Z,89.29
2022-08-02T01:40:24.098Z,89.09
2022-08-02T01:41:23.082Z,88.93
2022-08-02T01:42:23.086Z,88.48
2022-08-02T01:43:23.072Z,88.93
2022-08-02T01:44:27.214Z,88.62
2022-08-02T01:45:23.041Z,88.82
2022-08-02T01:46:23.022Z,89.03
2022-08-02T01:47:23.047Z,89.43
2022-08-02T01:48:23.005Z,89.54
2022-08-02T01:49:23.045Z,89.74
2022-08-02T01:50:22.982Z,89.33
2022-08-02T01:51:22.972Z,89.33
2022-08-02T01:52:22.956Z,88.62
2022-08-02T01:53:22.967Z,88.73
2022-08-02T01:54:22.937Z,89.13
2022-08-02T01:55:22.926Z,89.23
2022-08-02T01:56:23.925Z,88.73
2022-08-02T01:57:22.921Z,88.62
2022-08-02T01:58:22.901Z,88.76
2022-08-02T01:59:22.886Z,88.56
2022-08-02T02:00:22.881Z,88.76
2022-08-02T02:01:22.925Z,89.07
2022-08-02T02:02:22.860Z,89.28
2022-08-02T02:03:22.850Z,88.93
2022-08-02T02:04:22.846Z,88.67
2022-08-02T02:05:22.824Z,88.87
2022-08-02T02:06:22.815Z,88.97
2022-08-02T02:07:22.813Z,89.37
2022-08-02T02:08:27.275Z,89.37
2022-08-02T02:09:23.781Z,89.58
2022-08-02T02:10:22.770Z,89.98
2022-08-02T02:12:13.151Z,89.88
2022-08-02T02:12:23.759Z,89.52
2022-08-02T02:13:27.201Z,89.22
2022-08-02T02:14:23.721Z,89.28
2022-08-02T02:15:22.714Z,89.58
2022-08-02T02:16:22.698Z,89.72
2022-08-02T02:17:57.133Z,89.78
2022-08-02T02:18:23.686Z,89.31
2022-08-02T02:19:22.836Z,89.42
2022-08-02T02:20:22.660Z,90.03
2022-08-02T02:21:22.637Z,89.01
2022-08-02T02:22:22.662Z,88.71
2022-08-02T02:23:25.754Z,88.81
2022-08-02T02:24:22.612Z,88.91
2022-08-02T02:25:36.184Z,89.31
2022-08-02T02:26:30.965Z,88.91
2022-08-02T02:27:23.595Z,88.71
2022-08-02T02:28:22.563Z,88.81
2022-08-02T02:29:22.563Z,89.42
2022-08-02T02:30:22.542Z,89.31
2022-08-02T02:31:22.554Z,89.05
2022-08-02T02:32:22.553Z,89.52
2022-08-02T02:33:26.318Z,89.62
2022-08-02T02:34:23.506Z,89.36
2022-08-02T02:35:22.486Z,90.03
2022-08-02T02:36:22.479Z,89.72
2022-08-02T02:37:22.480Z,89.72
2022-08-02T02:38:22.459Z,89.83
2022-08-02T02:39:22.439Z,89.72
2022-08-02T02:40:22.430Z,89.72
2022-08-02T02:41:22.418Z,89.42
2022-08-02T02:42:22.433Z,89.72
2022-08-02T02:43:22.398Z,89.22
2022-08-02T02:44:22.390Z,88.75
2022-08-02T02:45:22.377Z,88.85
2022-08-02T02:46:22.367Z,88.54
2022-08-02T02:47:22.363Z,88.54
2022-08-02T02:48:23.364Z,88.75
2022-08-02T02:49:22.410Z,89.00
2022-08-02T02:50:22.321Z,88.95
2022-08-02T02:51:22.311Z,88.75
2022-08-02T02:52:22.326Z,88.95
2022-08-02T02:53:22.286Z,88.89
2022-08-02T02:54:31.146Z,88.89
2022-08-02T02:55:23.261Z,89.36
2022-08-02T02:56:22.255Z,89.40
2022-08-02T02:57:22.244Z,88.75
2022-08-02T02:58:22.242Z,88.85
2022-08-02T02:59:23.219Z,89.09
2022-08-02T03:00:22.215Z,88.79
2022-08-02T03:01:22.266Z,88.79
2022-08-02T03:02:23.187Z,88.48
2022-08-02T03:03:22.229Z,89.00
2022-08-02T03:04:22.219Z,89.30
2022-08-02T03:05:22.160Z,89.40
2022-08-02T03:06:22.156Z,89.20
2022-08-02T03:07:22.131Z,89.70
2022-08-02T03:08:22.158Z,89.50
2022-08-02T03:09:22.111Z,88.59
2022-08-02T03:10:22.094Z,88.73
2022-08-02T03:11:22.089Z,88.73
2022-08-02T03:12:22.079Z,88.89
2022-08-02T03:13:22.060Z,89.03
2022-08-02T03:14:22.094Z,89.95
2022-08-02T03:15:22.047Z,89.85
2022-08-02T03:16:22.030Z,90.16
2022-08-02T03:17:22.018Z,89.75
2022-08-02T03:18:22.008Z,89.75
2022-08-02T03:19:22.019Z,89.70
2022-08-02T03:20:21.991Z,89.95
2022-08-02T03:21:21.977Z,89.54
2022-08-02T03:22:21.967Z,89.95
2022-08-02T03:23:21.956Z,90.16
2022-08-02T03:24:28.237Z,90.16
2022-08-02T03:25:22.930Z,90.25
2022-08-02T03:26:21.921Z,90.36
2022-08-02T03:27:21.904Z,90.05
2022-08-02T03:28:21.898Z,90.31
2022-08-02T03:29:21.916Z,90.52
2022-08-02T03:30:29.078Z,90.31
2022-08-02T03:31:21.960Z,90.11
2022-08-02T03:32:21.910Z,89.81
2022-08-02T03:33:21.911Z,89.64
2022-08-02T03:34:21.924Z,89.91
2022-08-02T03:35:24.021Z,89.85
2022-08-02T03:36:21.850Z,90.01
2022-08-02T03:37:21.861Z,89.64
2022-08-02T03:38:21.820Z,89.64
2022-08-02T03:39:21.833Z,89.64
2022-08-02T03:40:21.788Z,90.05
2022-08-02T03:41:21.779Z,89.95
2022-08-02T03:42:21.743Z,89.95
2022-08-02T03:43:21.734Z,89.95
2022-08-02T03:44:21.739Z,89.85
2022-08-02T03:45:21.715Z,90.16
2022-08-02T03:46:21.699Z,90.16
2022-08-02T03:47:21.679Z,90.16
2022-08-02T03:48:34.231Z,90.16
2022-08-02T03:49:22.796Z,89.95
2022-08-02T03:50:21.672Z,89.95
2022-08-02T03:51:21.640Z,89.44
2022-08-02T03:52:21.642Z,90.05
2022-08-02T03:53:21.613Z,90.05
2022-08-02T03:54:21.618Z,90.09
2022-08-02T03:55:21.612Z,89.95
2022-08-02T03:56:23.510Z,89.85
2022-08-02T03:57:21.570Z,90.20
2022-08-02T03:58:21.562Z,89.79
2022-08-02T03:59:21.585Z,89.99
2022-08-02T04:00:21.555Z,89.75
2022-08-02T04:01:21.630Z,89.54
2022-08-02T04:02:21.522Z,89.95
2022-08-02T04:03:21.509Z,89.64
2022-08-02T04:04:21.499Z,90.16
2022-08-02T04:05:21.505Z,89.85
2022-08-02T04:06:27.216Z,89.85
2022-08-02T04:08:33.961Z,90.05
2022-08-02T04:08:37.270Z,90.16
2022-08-02T04:09:22.437Z,89.95
2022-08-02T04:10:21.475Z,90.46
2022-08-02T04:11:21.421Z,89.85
2022-08-02T04:12:21.410Z,90.36
2022-08-02T04:13:21.394Z,89.44
2022-08-02T04:14:21.390Z,89.64
2022-08-02T04:15:21.387Z,89.75
2022-08-02T04:16:21.385Z,89.85
2022-08-02T04:17:21.351Z,90.25
2022-08-02T04:18:21.347Z,90.46
2022-08-02T04:19:21.333Z,89.95
2022-08-02T04:20:21.323Z,89.95
2022-08-02T04:21:21.331Z,90.05
2022-08-02T04:22:21.296Z,89.95
2022-08-02T04:23:21.284Z,89.85
2022-08-02T04:24:24.400Z,90.25
2022-08-02T04:25:21.262Z,90.46
2022-08-02T04:26:28.236Z,90.36
2022-08-02T04:27:50.184Z,90.16
2022-08-02T04:28:27.718Z,90.36
2022-08-02T04:29:21.220Z,90.25
2022-08-02T04:30:21.225Z,90.22
2022-08-02T04:31:21.199Z,90.05
2022-08-02T04:32:21.208Z,90.16
2022-08-02T04:33:21.173Z,90.36
2022-08-02T04:34:21.161Z,89.91
2022-08-02T04:35:21.237Z,89.95
2022-08-02T04:36:31.694Z,90.46
2022-08-02T04:37:22.138Z,90.31
2022-08-02T04:38:21.120Z,90.31
2022-08-02T04:39:21.106Z,91.03
2022-08-02T04:40:21.101Z,90.92
2022-08-02T04:41:21.095Z,90.92
2022-08-02T04:42:21.097Z,90.92
2022-08-02T04:43:21.062Z,90.83
2022-08-02T04:44:21.058Z,91.09
2022-08-02T04:45:21.040Z,90.58
2022-08-02T04:46:21.043Z,90.07
2022-08-02T04:47:54.039Z,89.97
2022-08-02T04:48:22.014Z,89.76
2022-08-02T04:49:21.063Z,90.17
2022-08-02T04:50:20.995Z,89.97
2022-08-02T04:51:21.072Z,89.97
2022-08-02T04:52:22.015Z,89.62
2022-08-02T04:53:20.954Z,89.42
2022-08-02T04:54:21.043Z,89.22
2022-08-02T04:55:20.950Z,88.91
2022-08-02T04:56:20.944Z,89.22
2022-08-02T04:57:20.910Z,89.11
2022-08-02T04:58:41.318Z,89.11
2022-08-02T04:59:21.893Z,89.72
2022-08-02T05:00:20.911Z,90.13
2022-08-02T05:01:20.865Z,89.62
2022-08-02T05:02:20.877Z,89.92
2022-08-02T05:03:20.871Z,89.62
2022-08-02T05:04:20.836Z,89.58
2022-08-02T05:05:20.817Z,89.58
2022-08-02T05:06:20.810Z,89.28
2022-08-02T05:07:20.814Z,89.68
2022-08-02T05:08:20.794Z,89.68
2022-08-02T05:09:20.789Z,89.94
2022-08-02T05:10:20.769Z,89.74
2022-08-02T05:11:20.756Z,89.94
2022-08-02T05:12:20.751Z,89.54
2022-08-02T05:13:20.731Z,89.03
2022-08-02T05:14:20.744Z,89.03
2022-08-02T05:15:20.711Z,88.52
2022-08-02T05:16:20.700Z,88.52
2022-08-02T05:17:20.693Z,88.62
2022-08-02T05:18:20.685Z,88.68
2022-08-02T05:19:20.685Z,88.78
2022-08-02T05:20:20.656Z,88.28
2022-08-02T05:21:20.640Z,88.58
2022-08-02T05:22:20.636Z,88.58
2022-08-02T05:23:20.619Z,88.34
2022-08-02T05:24:20.634Z,88.34
2022-08-02T05:25:20.601Z,88.34
2022-08-02T05:26:20.594Z,88.03
2022-08-02T05:27:21.398Z,87.83
2022-08-02T05:28:20.573Z,87.79
2022-08-02T05:29:20.583Z,88.09
2022-08-02T05:30:20.553Z,87.79
2022-08-02T05:31:20.538Z,87.95
2022-08-02T05:32:20.527Z,87.85
2022-08-02T05:33:20.520Z,87.69
2022-08-02T05:34:20.516Z,87.89
2022-08-02T05:35:20.486Z,88.35
2022-08-02T05:36:21.433Z,88.05
2022-08-02T05:37:20.467Z,88.01
2022-08-02T05:38:20.455Z,87.40
2022-08-02T05:39:20.470Z,87.40
2022-08-02T05:40:25.390Z,86.45
2022-08-02T05:41:21.435Z,86.35
2022-08-02T05:42:20.420Z,86.35
2022-08-02T05:43:20.399Z,85.50
2022-08-02T05:44:20.454Z,85.30
2022-08-02T05:45:20.385Z,85.36
2022-08-02T05:46:20.519Z,84.91
2022-08-02T05:47:20.377Z,84.31
2022-08-02T05:48:20.347Z,83.36
2022-08-02T05:49:20.399Z,83.66
2022-08-02T05:50:20.339Z,83.42
2022-08-02T05:51:20.310Z,83.58
2022-08-02T05:52:20.328Z,83.68
2022-08-02T05:53:20.284Z,83.24
2022-08-02T05:54:20.281Z,82.03
2022-08-02T05:55:20.281Z,81.73
2022-08-02T05:56:20.254Z,81.38
2022-08-02T05:57:20.258Z,80.94
2022-08-02T05:58:20.236Z,81.95
2022-08-02T05:59:20.222Z,81.51
2022-08-02T06:00:20.211Z,80.26
2022-08-02T06:01:20.271Z,79.92
2022-08-02T06:02:20.617Z,78.67
2022-08-02T06:03:20.172Z,78.58
2022-08-02T06:04:20.167Z,77.53
2022-08-02T06:05:20.161Z,77.23
2022-08-02T06:06:20.168Z,76.73
2022-08-02T06:07:20.129Z,76.69
2022-08-02T06:08:20.140Z,75.99
2022-08-02T06:09:21.034Z,76.19
2022-08-02T06:10:20.106Z,76.29
2022-08-02T06:11:20.100Z,75.45
2022-08-02T06:12:20.079Z,75.71
2022-08-02T06:13:20.086Z,74.71
2022-08-02T06:14:20.054Z,73.77
2022-08-02T06:15:20.039Z,73.94
2022-08-02T06:16:31.790Z,74.34
2022-08-02T06:17:21.034Z,73.54
2022-08-02T06:18:20.028Z,73.84
2022-08-02T06:19:20.993Z,73.24
2022-08-02T06:20:19.985Z,73.30
2022-08-02T06:22:30.687Z,73.47
2022-08-02T06:22:40.326Z,71.93
2022-08-02T06:23:20.963Z,72.13
2022-08-02T06:24:19.948Z,71.59
2022-08-02T06:25:47.978Z,70.79
2022-08-02T06:26:20.926Z,71.23
2022-08-02T06:27:20.008Z,71.09
2022-08-02T06:28:19.926Z,71.69
2022-08-02T06:29:19.890Z,71.30
2022-08-02T06:30:19.896Z,71.16
2022-08-02T06:31:19.875Z,70.76
2022-08-02T06:32:19.881Z,71.16
2022-08-02T06:33:19.858Z,70.73
2022-08-02T06:34:19.872Z,71.39
2022-08-02T06:35:19.826Z,69.49
2022-08-02T06:36:19.815Z,68.99
2022-08-02T06:37:19.823Z,69.79
2022-08-02T06:38:19.803Z,69.56
2022-08-02T06:39:19.785Z,68.26
2022-08-02T06:40:19.767Z,68.76
2022-08-02T06:41:19.762Z,68.96
2022-08-02T06:42:26.830Z,68.96
2022-08-02T06:43:20.873Z,68.56
2022-08-02T06:44:45.605Z,69.23
2022-08-02T06:45:20.727Z,67.72
2022-08-02T06:46:37.785Z,67.86
2022-08-02T06:47:20.715Z,68.56
2022-08-02T06:48:19.681Z,70.23
2022-08-02T06:49:19.767Z,69.32
2022-08-02T06:50:19.680Z,68.23
2022-08-02T06:51:19.651Z,68.33
2022-08-02T06:52:21.448Z,68.13
2022-08-02T06:53:19.632Z,67.76
2022-08-02T06:54:19.647Z,68.99
2022-08-02T06:55:19.620Z,68.59
2022-08-02T06:56:19.587Z,69.89
2022-08-02T06:57:19.589Z,71.03
2022-08-02T06:58:19.570Z,69.73
2022-08-02T06:59:19.578Z,69.73
2022-08-02T07:00:19.564Z,70.79
2022-08-02T07:01:19.617Z,71.29
2022-08-02T07:02:19.520Z,69.93
2022-08-02T07:03:19.527Z,70.92
2022-08-02T07:04:20.325Z,71.09
2022-08-02T07:05:19.522Z,72.59
2022-08-02T07:06:19.481Z,70.29
2022-08-02T07:07:19.473Z,71.29
2022-08-02T07:08:19.456Z,70.89
2022-08-02T07:09:21.378Z,70.69
2022-08-02T07:10:19.449Z,70.59
2022-08-02T07:11:19.455Z,71.09
2022-08-02T07:12:19.418Z,71.99
2022-08-02T07:13:19.413Z,71.29
2022-08-02T07:14:19.401Z,71.23
2022-08-02T07:15:19.408Z,71.53
2022-08-02T07:16:19.380Z,73.03
2022-08-02T07:17:19.396Z,71.83
2022-08-02T07:18:19.353Z,71.59
2022-08-02T07:19:19.339Z,71.39
2022-08-02T07:20:19.352Z,72.19
2022-08-02T07:21:19.330Z,71.99
2022-08-02T07:22:20.318Z,72.06
2022-08-02T07:23:19.301Z,72.26
2022-08-02T07:24:19.284Z,70.96
2022-08-02T07:25:19.297Z,71.46
2022-08-02T07:26:19.261Z,72.42
2022-08-02T07:27:19.255Z,70.83
2022-08-02T07:28:23.812Z,71.33
2022-08-02T07:29:19.236Z,71.12
2022-08-02T07:30:19.215Z,71.89
2022-08-02T07:31:19.225Z,70.79
2022-08-02T07:32:19.205Z,71.29
2022-08-02T07:33:38.058Z,70.09
2022-08-02T07:34:20.189Z,71.59
2022-08-02T07:35:19.371Z,70.95
2022-08-02T07:36:22.837Z,71.75
2022-08-02T07:37:31.917Z,70.56
2022-08-02T07:38:20.130Z,69.46
2022-08-02T07:39:19.131Z,70.36
2022-08-02T07:40:20.619Z,69.86
2022-08-02T07:41:19.123Z,69.86
2022-08-02T07:42:19.103Z,69.66
2022-08-02T07:43:19.079Z,69.86
2022-08-02T07:44:19.070Z,69.86
2022-08-02T07:45:19.053Z,69.66
2022-08-02T07:46:19.048Z,68.46
2022-08-02T07:47:19.036Z,68.66
2022-08-02T07:48:19.032Z,67.86
2022-08-02T07:49:19.075Z,67.86
2022-08-02T07:50:18.996Z,68.16
2022-08-02T07:51:18.988Z,69.62
2022-08-02T07:52:18.975Z,67.83
2022-08-02T07:53:19.012Z,67.63
2022-08-02T07:54:18.949Z,67.53
2022-08-02T07:55:18.959Z,65.94
2022-08-02T07:56:18.933Z,67.80
2022-08-02T07:57:18.923Z,67.60
2022-08-02T07:58:18.925Z,67.50
2022-08-02T07:59:18.909Z,64.01
2022-08-02T08:00:18.887Z,63.81
2022-08-02T08:01:18.953Z,64.81
2022-08-02T08:02:18.869Z,65.50
2022-08-02T08:03:18.874Z,64.31
2022-08-02T08:04:18.841Z,64.81
2022-08-02T08:05:18.844Z,63.91
2022-08-02T08:06:18.822Z,64.24
2022-08-02T08:07:18.812Z,65.73
2022-08-02T08:08:18.794Z,64.07
2022-08-02T08:09:18.807Z,63.57
2022-08-02T08:10:18.770Z,63.97
2022-08-02T08:11:18.776Z,64.34
2022-08-02T08:12:18.776Z,62.15
2022-08-02T08:13:18.744Z,63.34
2022-08-02T08:14:18.745Z,62.91
2022-08-02T08:15:18.729Z,62.31
2022-08-02T08:16:18.708Z,62.12
2022-08-02T08:17:18.708Z,62.04
2022-08-02T08:18:18.689Z,61.85
2022-08-02T08:19:18.676Z,63.44
2022-08-02T08:20:18.683Z,63.64
2022-08-02T08:21:18.664Z,63.24
2022-08-02T08:22:18.644Z,62.94
2022-08-02T08:23:18.648Z,63.74
2022-08-02T08:24:18.646Z,62.91
2022-08-02T08:25:18.660Z,62.12
2022-08-02T08:26:18.605Z,63.51
2022-08-02T08:27:18.620Z,63.28
2022-08-02T08:28:18.574Z,61.88
2022-08-02T08:29:18.568Z,61.79
2022-08-02T08:30:18.566Z,63.48
2022-08-02T08:31:18.565Z,61.76
2022-08-02T08:32:18.936Z,61.96
2022-08-02T08:33:18.527Z,63.65
2022-08-02T08:34:18.516Z,62.32
2022-08-02T08:35:18.496Z,61.83
2022-08-02T08:36:18.497Z,62.99
2022-08-02T08:37:18.886Z,60.60
2022-08-02T08:38:18.469Z,61.20
2022-08-02T08:39:18.459Z,59.70
2022-08-02T08:40:19.643Z,61.60
2022-08-02T08:41:18.436Z,59.51
2022-08-02T08:42:18.691Z,59.74
2022-08-02T08:43:18.414Z,59.61
2022-08-02T08:44:18.410Z,61.40
2022-08-02T08:45:18.395Z,60.27
2022-08-02T08:46:18.377Z,60.38
2022-08-02T08:47:18.369Z,60.08
2022-08-02T08:48:30.390Z,60.17
2022-08-02T08:49:19.371Z,59.08
2022-08-02T08:50:24.143Z,59.68
2022-08-02T08:51:19.327Z,59.18
2022-08-02T08:52:18.318Z,58.69
2022-08-02T08:53:18.319Z,60.74
2022-08-02T08:54:18.314Z,59.25
2022-08-02T08:55:18.287Z,60.35
2022-08-02T08:56:18.270Z,61.91
2022-08-02T08:57:18.265Z,58.43
2022-08-02T08:58:18.260Z,57.21
2022-08-02T08:59:18.237Z,56.71
2022-08-02T09:00:18.314Z,56.91
2022-08-02T09:01:18.302Z,57.21
2022-08-02T09:02:21.412Z,55.91
2022-08-02T09:03:19.209Z,57.18
2022-08-02T09:04:18.179Z,55.52
2022-08-02T09:05:18.173Z,55.79
2022-08-02T09:06:18.179Z,55.49
2022-08-02T09:07:18.150Z,55.40
2022-08-02T09:08:18.159Z,55.89
2022-08-02T09:09:18.134Z,54.23
2022-08-02T09:10:18.164Z,54.70
2022-08-02T09:11:18.111Z,54.21
2022-08-02T09:12:18.117Z,54.40
2022-08-02T09:13:37.651Z,54.80
2022-08-02T09:14:19.075Z,54.40
2022-08-02T09:15:18.063Z,54.80
2022-08-02T09:16:18.048Z,54.30
2022-08-02T09:17:18.045Z,55.29
2022-08-02T09:18:18.075Z,55.57
2022-08-02T09:19:18.025Z,55.99
2022-08-02T09:20:18.011Z,55.87
2022-08-02T09:21:18.000Z,58.64
2022-08-02T09:22:17.986Z,56.46
2022-08-02T09:23:17.980Z,54.87
2022-08-02T09:24:17.995Z,54.64
2022-08-02T09:25:17.961Z,53.66
2022-08-02T09:26:17.944Z,53.45
2022-08-02T09:27:17.932Z,54.15
2022-08-02T09:28:17.918Z,53.06
2022-08-02T09:29:17.921Z,52.47
2022-08-02T09:30:25.010Z,52.86
2022-08-02T09:31:17.892Z,53.45
2022-08-02T09:32:17.881Z,52.66
2022-08-02T09:33:17.867Z,53.03
2022-08-02T09:34:20.000Z,54.42
2022-08-02T09:35:17.844Z,55.21
2022-08-02T09:36:17.875Z,54.79
2022-08-02T09:37:17.824Z,52.94
2022-08-02T09:38:17.851Z,53.36
2022-08-02T09:39:17.812Z,54.42
2022-08-02T09:40:17.807Z,54.42
2022-08-02T09:41:17.784Z,54.10
2022-08-02T09:42:17.770Z,54.20
2022-08-02T09:43:17.757Z,53.67
2022-08-02T09:44:17.818Z,53.48
2022-08-02T09:45:17.739Z,54.86
2022-08-02T09:46:17.729Z,54.07
2022-08-02T09:47:17.715Z,53.08
2022-08-02T09:48:17.703Z,55.56
2022-08-02T09:49:17.773Z,55.96
2022-08-02T09:50:17.732Z,53.58
2022-08-02T09:51:17.705Z,53.97
2022-08-02T09:52:17.656Z,55.16
2022-08-02T09:53:17.659Z,54.64
2022-08-02T09:54:17.643Z,52.39
2022-08-02T09:55:17.638Z,54.35
2022-08-02T09:56:35.118Z,52.49
2022-08-02T09:57:18.629Z,52.07
2022-08-02T09:58:17.594Z,54.44
2022-08-02T09:59:17.589Z,52.66
2022-08-02T10:00:26.980Z,53.55
2022-08-02T10:01:18.628Z,54.37
2022-08-02T10:02:22.723Z,54.44
2022-08-02T10:03:22.379Z,54.35
2022-08-02T10:04:22.505Z,53.03
2022-08-02T10:05:17.562Z,53.82
2022-08-02T10:06:17.525Z,53.99
2022-08-02T10:07:17.501Z,52.93
2022-08-02T10:08:17.538Z,53.42
2022-08-02T10:09:17.476Z,52.93
2022-08-02T10:10:17.476Z,54.22
2022-08-02T10:11:17.609Z,53.50
2022-08-02T10:12:17.463Z,53.53
2022-08-02T10:13:21.683Z,54.49
2022-08-02T10:14:17.426Z,54.49
2022-08-02T10:15:17.416Z,53.70
2022-08-02T10:16:17.401Z,52.81
2022-08-02T10:17:17.418Z,52.91
2022-08-02T10:18:36.971Z,52.91
2022-08-02T10:19:18.373Z,52.34
2022-08-02T10:20:18.354Z,54.52
2022-08-02T10:21:17.353Z,54.02
2022-08-02T10:22:19.673Z,54.44
2022-08-02T10:23:17.325Z,53.85
2022-08-02T10:24:17.309Z,54.32
2022-08-02T10:25:17.312Z,56.07
2022-08-02T10:26:17.294Z,54.91
2022-08-02T10:27:17.282Z,54.29
2022-08-02T10:28:17.280Z,55.70
2022-08-02T10:29:17.265Z,54.81
2022-08-02T10:30:17.248Z,55.13
2022-08-02T10:31:17.242Z,56.55
2022-08-02T10:32:17.258Z,57.31
2022-08-02T10:33:17.228Z,55.80
2022-08-02T10:34:17.204Z,55.60
2022-08-02T10:35:19.969Z,54.79
2022-08-02T10:36:18.188Z,54.96
2022-08-02T10:37:17.174Z,55.55
2022-08-02T10:38:17.173Z,56.04
2022-08-02T10:39:17.153Z,55.72
2022-08-02T10:40:17.179Z,55.72
2022-08-02T10:41:17.136Z,54.76
2022-08-02T10:42:17.122Z,55.15
2022-08-02T10:43:17.126Z,57.62
2022-08-02T10:44:24.253Z,57.53
2022-08-02T10:45:18.087Z,57.43
2022-08-02T10:46:17.077Z,55.52
2022-08-02T10:47:17.099Z,56.14
2022-08-02T10:48:17.094Z,55.55
2022-08-02T10:50:18.095Z,57.75
2022-08-02T10:51:17.018Z,55.87
2022-08-02T10:52:18.013Z,57.29
2022-08-02T10:53:17.003Z,58.11
2022-08-02T10:54:17.001Z,58.92
2022-08-02T10:55:22.505Z,58.43
2022-08-02T10:56:17.974Z,59.62
2022-08-02T10:57:16.964Z,60.51
2022-08-02T10:58:16.966Z,60.02
2022-08-02T10:59:16.964Z,59.72
2022-08-02T11:00:19.260Z,59.62
2022-08-02T11:01:16.975Z,60.21
2022-08-02T11:02:17.296Z,59.89
2022-08-02T11:03:16.890Z,60.28
2022-08-02T11:04:16.892Z,62.90
2022-08-02T11:05:16.885Z,60.52
2022-08-02T11:06:26.212Z,59.90
2022-08-02T11:07:17.903Z,58.81
2022-08-02T11:08:16.878Z,58.51
2022-08-02T11:09:16.839Z,57.82
2022-08-02T11:10:16.849Z,56.44
2022-08-02T11:11:16.806Z,58.22
2022-08-02T11:12:16.804Z,56.76
2022-08-02T11:13:16.827Z,57.03
2022-08-02T11:14:16.796Z,58.25
2022-08-02T11:15:16.785Z,59.04
2022-08-02T11:16:16.797Z,57.46
2022-08-02T11:17:16.747Z,58.77
2022-08-02T11:18:16.778Z,59.06
2022-08-02T11:19:16.713Z,59.95
2022-08-02T11:20:16.722Z,59.83
2022-08-02T11:21:16.724Z,58.87
2022-08-02T11:22:16.684Z,58.37
2022-08-02T11:23:16.676Z,58.30
2022-08-02T11:24:16.670Z,59.69
2022-08-02T11:25:16.673Z,60.35
2022-08-02T11:26:16.649Z,60.94
2022-08-02T11:27:16.640Z,58.37
2022-08-02T11:28:16.617Z,57.68
2022-08-02T11:29:16.604Z,58.07
2022-08-02T11:30:16.605Z,58.77
2022-08-02T11:31:16.600Z,59.95
2022-08-02T11:32:16.577Z,57.35
2022-08-02T11:33:16.563Z,59.63
2022-08-02T11:34:26.601Z,58.94
2022-08-02T11:35:17.559Z,57.46
2022-08-02T11:36:16.534Z,58.15
2022-08-02T11:37:16.515Z,58.45
2022-08-02T11:38:16.513Z,57.56
2022-08-02T11:39:16.498Z,58.74
2022-08-02T11:40:19.418Z,57.68
2022-08-02T11:41:16.494Z,58.90
2022-08-02T11:42:17.470Z,59.36
2022-08-02T11:43:16.462Z,59.19
2022-08-02T11:44:16.443Z,58.60
2022-08-02T11:45:21.515Z,59.59
2022-08-02T11:46:17.434Z,59.76
2022-08-02T11:47:16.414Z,59.95
2022-08-02T11:48:16.402Z,61.07
2022-08-02T11:49:16.445Z,60.16
2022-08-02T11:50:16.380Z,60.55
2022-08-02T11:51:16.383Z,61.34
2022-08-02T11:52:16.640Z,59.76
2022-08-02T11:53:16.347Z,61.15
2022-08-02T11:54:16.341Z,60.16
2022-08-02T11:55:16.326Z,59.79
2022-08-02T11:56:21.711Z,58.90
2022-08-02T11:57:20.319Z,59.00
2022-08-02T11:58:16.313Z,58.80
2022-08-02T11:59:16.333Z,59.19
2022-08-02T12:00:16.312Z,59.30
2022-08-02T12:01:16.259Z,58.83
2022-08-02T12:02:16.280Z,58.33
2022-08-02T12:03:19.641Z,58.80
2022-08-02T12:04:16.263Z,57.81
2022-08-02T12:05:16.218Z,55.80
2022-08-02T12:06:16.937Z,55.80
2022-08-02T12:07:16.237Z,57.09
2022-08-02T12:08:21.976Z,56.86
2022-08-02T12:09:18.300Z,56.93
2022-08-02T12:10:18.796Z,55.75
2022-08-02T12:11:16.155Z,56.91
2022-08-02T12:12:16.145Z,53.94
2022-08-02T12:13:16.130Z,55.79
2022-08-02T12:14:16.152Z,55.03
2022-08-02T12:15:16.144Z,55.52
2022-08-02T12:16:16.100Z,54.53
2022-08-02T12:17:16.085Z,56.41
2022-08-02T12:18:16.078Z,54.53
2022-08-02T12:19:16.068Z,55.43
2022-08-02T12:20:16.106Z,56.24
2022-08-02T12:21:16.047Z,55.52
2022-08-02T12:22:16.463Z,55.82
2022-08-02T12:23:16.027Z,56.41
2022-08-02T12:24:16.010Z,56.51
2022-08-02T12:25:16.022Z,55.52
2022-08-02T12:26:16.989Z,55.26
2022-08-02T12:27:15.974Z,54.24
2022-08-02T12:28:17.806Z,55.94
2022-08-02T12:29:15.954Z,56.04
2022-08-02T12:30:16.961Z,55.85
2022-08-02T12:31:16.931Z,56.24
2022-08-02T12:32:15.924Z,54.73
2022-08-02T12:33:15.909Z,56.12
2022-08-02T12:34:15.947Z,55.26
2022-08-02T12:35:26.270Z,55.45
2022-08-02T12:36:16.889Z,55.05
2022-08-02T12:37:15.867Z,55.55
2022-08-02T12:38:15.860Z,54.27
2022-08-02T12:39:15.862Z,55.58
2022-08-02T12:40:15.850Z,55.65
2022-08-02T12:41:31.032Z,56.54
2022-08-02T12:42:17.113Z,53.87
2022-08-02T12:43:15.809Z,52.51
2022-08-02T12:44:15.806Z,53.89
2022-08-02T12:45:15.809Z,53.80
2022-08-02T12:46:15.774Z,53.80
2022-08-02T12:47:15.755Z,52.58
2022-08-02T12:48:15.754Z,54.46
2022-08-02T12:49:18.502Z,55.52
2022-08-02T12:50:16.141Z,54.36
2022-08-02T12:51:15.729Z,54.27
2022-08-02T12:52:17.327Z,53.28
2022-08-02T12:53:15.727Z,54.56